sensor_id;sensor_type;location;lat;lon;timestamp;P1;durP1;ratioP1;P2;durP2;ratioP2
74102;SDS011;62853;46.166;3.640;2023-04-03T00:01:08;10.07;;;5.03;;
74102;SDS011;62853;46.166;3.640;2023-04-03T00:03:34;6.78;;;4.72;;
74102;SDS011;62853;46.166;3.640;2023-04-03T00:05:59;6.43;;;4.55;;
74102;SDS011;62853;46.166;3.640;2023-04-03T00:08:26;11.55;;;5.60;;
74102;SDS011;62853;46.166;3.640;2023-04-03T00:10:51;9.93;;;5.70;;
74102;SDS011;62853;46.166;3.640;2023-04-03T00:13:17;9.80;;;4.88;;
74102;SDS011;62853;46.166;3.640;2023-04-03T00:15:42;9.18;;;4.95;;
74102;SDS011;62853;46.166;3.640;2023-04-03T00:18:08;11.00;;;5.22;;
74102;SDS011;62853;46.166;3.640;2023-04-03T00:20:33;5.80;;;4.18;;
74102;SDS011;62853;46.166;3.640;2023-04-03T00:22:59;8.82;;;4.95;;
74102;SDS011;62853;46.166;3.640;2023-04-03T00:25:25;7.05;;;4.65;;
74102;SDS011;62853;46.166;3.640;2023-04-03T00:27:51;9.32;;;4.85;;
74102;SDS011;62853;46.166;3.640;2023-04-03T00:30:17;8.38;;;4.68;;
74102;SDS011;62853;46.166;3.640;2023-04-03T00:32:45;8.60;;;4.68;;
74102;SDS011;62853;46.166;3.640;2023-04-03T00:35:12;6.78;;;4.40;;
74102;SDS011;62853;46.166;3.640;2023-04-03T00:37:40;7.45;;;4.50;;
74102;SDS011;62853;46.166;3.640;2023-04-03T00:40:06;7.32;;;4.72;;
74102;SDS011;62853;46.166;3.640;2023-04-03T00:42:32;6.78;;;4.85;;
74102;SDS011;62853;46.166;3.640;2023-04-03T00:47:23;7.82;;;4.30;;
74102;SDS011;62853;46.166;3.640;2023-04-03T00:49:49;7.32;;;4.22;;
74102;SDS011;62853;46.166;3.640;2023-04-03T00:52:17;9.63;;;6.50;;
74102;SDS011;62853;46.166;3.640;2023-04-03T00:54:46;8.65;;;4.63;;
74102;SDS011;62853;46.166;3.640;2023-04-03T00:57:14;6.43;;;4.35;;
74102;SDS011;62853;46.166;3.640;2023-04-03T00:59:43;8.75;;;4.15;;
74102;SDS011;62853;46.166;3.640;2023-04-03T01:02:14;8.30;;;4.82;;
74102;SDS011;62853;46.166;3.640;2023-04-03T01:04:41;7.07;;;4.57;;
74102;SDS011;62853;46.166;3.640;2023-04-03T01:07:15;6.82;;;4.70;;
74102;SDS011;62853;46.166;3.640;2023-04-03T01:09:42;7.93;;;4.47;;
74102;SDS011;62853;46.166;3.640;2023-04-03T01:12:29;6.70;;;4.50;;
74102;SDS011;62853;46.166;3.640;2023-04-03T01:15:03;8.40;;;4.47;;
74102;SDS011;62853;46.166;3.640;2023-04-03T01:17:33;6.10;;;4.40;;
74102;SDS011;62853;46.166;3.640;2023-04-03T01:22:34;9.55;;;4.80;;
74102;SDS011;62853;46.166;3.640;2023-04-03T01:25:23;8.15;;;4.40;;
74102;SDS011;62853;46.166;3.640;2023-04-03T01:27:48;6.32;;;4.40;;
74102;SDS011;62853;46.166;3.640;2023-04-03T01:30:14;9.70;;;4.90;;
74102;SDS011;62853;46.166;3.640;2023-04-03T01:32:43;9.65;;;4.70;;
74102;SDS011;62853;46.166;3.640;2023-04-03T01:35:08;10.00;;;5.10;;
74102;SDS011;62853;46.166;3.640;2023-04-03T01:37:35;10.95;;;5.68;;
74102;SDS011;62853;46.166;3.640;2023-04-03T01:40:00;9.32;;;4.55;;
74102;SDS011;62853;46.166;3.640;2023-04-03T01:42:25;9.38;;;5.25;;
74102;SDS011;62853;46.166;3.640;2023-04-03T01:44:51;8.25;;;4.80;;
74102;SDS011;62853;46.166;3.640;2023-04-03T01:47:16;7.13;;;4.88;;
74102;SDS011;62853;46.166;3.640;2023-04-03T01:49:42;9.93;;;5.75;;
74102;SDS011;62853;46.166;3.640;2023-04-03T01:52:07;8.63;;;5.43;;
74102;SDS011;62853;46.166;3.640;2023-04-03T01:54:32;8.85;;;4.60;;
74102;SDS011;62853;46.166;3.640;2023-04-03T01:56:58;8.35;;;4.60;;
74102;SDS011;62853;46.166;3.640;2023-04-03T01:59:23;9.63;;;4.93;;
74102;SDS011;62853;46.166;3.640;2023-04-03T02:01:48;6.65;;;4.80;;
74102;SDS011;62853;46.166;3.640;2023-04-03T02:04:14;8.48;;;4.63;;
74102;SDS011;62853;46.166;3.640;2023-04-03T02:06:40;7.80;;;4.93;;
74102;SDS011;62853;46.166;3.640;2023-04-03T02:09:05;7.68;;;5.07;;
74102;SDS011;62853;46.166;3.640;2023-04-03T02:11:31;7.32;;;4.60;;
74102;SDS011;62853;46.166;3.640;2023-04-03T02:13:57;10.48;;;5.45;;
74102;SDS011;62853;46.166;3.640;2023-04-03T02:16:22;9.95;;;5.05;;
74102;SDS011;62853;46.166;3.640;2023-04-03T02:18:48;10.25;;;5.90;;
74102;SDS011;62853;46.166;3.640;2023-04-03T02:21:13;8.32;;;5.13;;
74102;SDS011;62853;46.166;3.640;2023-04-03T02:23:39;6.93;;;4.70;;
74102;SDS011;62853;46.166;3.640;2023-04-03T02:26:05;8.70;;;4.68;;
74102;SDS011;62853;46.166;3.640;2023-04-03T02:28:33;10.23;;;5.15;;
74102;SDS011;62853;46.166;3.640;2023-04-03T02:30:59;8.00;;;4.75;;
74102;SDS011;62853;46.166;3.640;2023-04-03T02:33:25;9.40;;;5.07;;
74102;SDS011;62853;46.166;3.640;2023-04-03T02:35:54;9.43;;;5.03;;
74102;SDS011;62853;46.166;3.640;2023-04-03T02:38:21;7.88;;;4.95;;
74102;SDS011;62853;46.166;3.640;2023-04-03T02:40:46;8.30;;;5.30;;
74102;SDS011;62853;46.166;3.640;2023-04-03T02:43:12;8.82;;;4.93;;
74102;SDS011;62853;46.166;3.640;2023-04-03T02:45:37;8.18;;;5.10;;
74102;SDS011;62853;46.166;3.640;2023-04-03T02:48:03;10.27;;;5.10;;
74102;SDS011;62853;46.166;3.640;2023-04-03T02:50:29;9.90;;;5.88;;
74102;SDS011;62853;46.166;3.640;2023-04-03T02:52:54;8.32;;;4.97;;
74102;SDS011;62853;46.166;3.640;2023-04-03T02:55:20;13.10;;;5.65;;
74102;SDS011;62853;46.166;3.640;2023-04-03T02:57:45;8.57;;;4.93;;
74102;SDS011;62853;46.166;3.640;2023-04-03T03:00:11;9.18;;;5.38;;
74102;SDS011;62853;46.166;3.640;2023-04-03T03:02:37;7.45;;;5.28;;
74102;SDS011;62853;46.166;3.640;2023-04-03T03:05:02;9.85;;;4.82;;
74102;SDS011;62853;46.166;3.640;2023-04-03T03:07:28;9.35;;;4.78;;
74102;SDS011;62853;46.166;3.640;2023-04-03T03:09:53;8.52;;;4.85;;
74102;SDS011;62853;46.166;3.640;2023-04-03T03:12:19;8.82;;;4.60;;
74102;SDS011;62853;46.166;3.640;2023-04-03T03:14:46;8.85;;;4.60;;
74102;SDS011;62853;46.166;3.640;2023-04-03T03:17:12;5.75;;;4.15;;
74102;SDS011;62853;46.166;3.640;2023-04-03T03:19:38;11.93;;;5.20;;
74102;SDS011;62853;46.166;3.640;2023-04-03T03:22:03;9.35;;;5.07;;
74102;SDS011;62853;46.166;3.640;2023-04-03T03:24:28;6.05;;;4.53;;
74102;SDS011;62853;46.166;3.640;2023-04-03T03:26:54;10.65;;;5.25;;
74102;SDS011;62853;46.166;3.640;2023-04-03T03:29:20;12.68;;;4.82;;
74102;SDS011;62853;46.166;3.640;2023-04-03T03:31:45;7.88;;;4.85;;
74102;SDS011;62853;46.166;3.640;2023-04-03T03:34:11;8.52;;;5.20;;
74102;SDS011;62853;46.166;3.640;2023-04-03T03:36:36;6.40;;;3.92;;
74102;SDS011;62853;46.166;3.640;2023-04-03T03:39:02;9.43;;;4.60;;
74102;SDS011;62853;46.166;3.640;2023-04-03T03:41:27;7.95;;;4.32;;
74102;SDS011;62853;46.166;3.640;2023-04-03T03:43:53;12.10;;;4.57;;
74102;SDS011;62853;46.166;3.640;2023-04-03T03:46:18;8.02;;;4.68;;
74102;SDS011;62853;46.166;3.640;2023-04-03T03:48:44;10.35;;;4.63;;
74102;SDS011;62853;46.166;3.640;2023-04-03T03:51:09;9.75;;;4.80;;
74102;SDS011;62853;46.166;3.640;2023-04-03T03:53:35;6.35;;;4.40;;
74102;SDS011;62853;46.166;3.640;2023-04-03T03:56:00;11.98;;;4.53;;
74102;SDS011;62853;46.166;3.640;2023-04-03T03:58:26;11.02;;;4.75;;
74102;SDS011;62853;46.166;3.640;2023-04-03T04:00:51;8.18;;;4.75;;
74102;SDS011;62853;46.166;3.640;2023-04-03T04:03:16;9.23;;;4.38;;
74102;SDS011;62853;46.166;3.640;2023-04-03T04:05:42;8.60;;;4.60;;
74102;SDS011;62853;46.166;3.640;2023-04-03T04:08:08;9.50;;;4.63;;
74102;SDS011;62853;46.166;3.640;2023-04-03T04:10:33;9.65;;;4.35;;
74102;SDS011;62853;46.166;3.640;2023-04-03T04:13:00;8.02;;;4.72;;
74102;SDS011;62853;46.166;3.640;2023-04-03T04:15:26;8.90;;;4.53;;
74102;SDS011;62853;46.166;3.640;2023-04-03T04:17:52;9.57;;;4.43;;
74102;SDS011;62853;46.166;3.640;2023-04-03T04:20:18;8.65;;;4.20;;
74102;SDS011;62853;46.166;3.640;2023-04-03T04:22:43;9.38;;;4.70;;
74102;SDS011;62853;46.166;3.640;2023-04-03T04:25:09;9.20;;;4.65;;
74102;SDS011;62853;46.166;3.640;2023-04-03T04:27:35;6.57;;;4.47;;
74102;SDS011;62853;46.166;3.640;2023-04-03T04:30:00;9.32;;;4.32;;
74102;SDS011;62853;46.166;3.640;2023-04-03T04:32:26;7.82;;;3.70;;
74102;SDS011;62853;46.166;3.640;2023-04-03T04:34:51;6.70;;;3.85;;
74102;SDS011;62853;46.166;3.640;2023-04-03T04:37:16;8.27;;;3.50;;
74102;SDS011;62853;46.166;3.640;2023-04-03T04:39:42;8.27;;;4.25;;
74102;SDS011;62853;46.166;3.640;2023-04-03T04:42:07;6.28;;;3.78;;
74102;SDS011;62853;46.166;3.640;2023-04-03T04:44:37;8.13;;;3.95;;
74102;SDS011;62853;46.166;3.640;2023-04-03T04:47:06;8.18;;;4.00;;
74102;SDS011;62853;46.166;3.640;2023-04-03T04:49:31;6.45;;;3.47;;
74102;SDS011;62853;46.166;3.640;2023-04-03T04:51:57;8.55;;;3.33;;
74102;SDS011;62853;46.166;3.640;2023-04-03T04:54:22;6.70;;;3.50;;
74102;SDS011;62853;46.166;3.640;2023-04-03T04:56:47;9.43;;;3.72;;
74102;SDS011;62853;46.166;3.640;2023-04-03T04:59:13;5.53;;;3.58;;
74102;SDS011;62853;46.166;3.640;2023-04-03T05:01:38;8.55;;;3.67;;
74102;SDS011;62853;46.166;3.640;2023-04-03T05:04:06;7.07;;;3.03;;
74102;SDS011;62853;46.166;3.640;2023-04-03T05:06:32;6.25;;;3.25;;
74102;SDS011;62853;46.166;3.640;2023-04-03T05:08:58;5.57;;;3.22;;
74102;SDS011;62853;46.166;3.640;2023-04-03T05:11:23;9.23;;;2.90;;
74102;SDS011;62853;46.166;3.640;2023-04-03T05:13:49;5.70;;;2.80;;
74102;SDS011;62853;46.166;3.640;2023-04-03T05:16:14;5.72;;;2.78;;
74102;SDS011;62853;46.166;3.640;2023-04-03T05:18:40;6.38;;;3.15;;
74102;SDS011;62853;46.166;3.640;2023-04-03T05:21:05;3.97;;;2.65;;
74102;SDS011;62853;46.166;3.640;2023-04-03T05:23:31;5.68;;;2.83;;
74102;SDS011;62853;46.166;3.640;2023-04-03T05:25:56;6.93;;;2.72;;
74102;SDS011;62853;46.166;3.640;2023-04-03T05:28:22;5.25;;;2.50;;
74102;SDS011;62853;46.166;3.640;2023-04-03T05:30:57;7.63;;;3.00;;
74102;SDS011;62853;46.166;3.640;2023-04-03T05:33:23;7.25;;;2.78;;
74102;SDS011;62853;46.166;3.640;2023-04-03T05:35:48;6.03;;;2.60;;
74102;SDS011;62853;46.166;3.640;2023-04-03T05:38:14;5.28;;;2.78;;
74102;SDS011;62853;46.166;3.640;2023-04-03T05:40:40;8.20;;;2.50;;
74102;SDS011;62853;46.166;3.640;2023-04-03T05:43:05;3.80;;;2.65;;
74102;SDS011;62853;46.166;3.640;2023-04-03T05:45:30;6.97;;;2.40;;
74102;SDS011;62853;46.166;3.640;2023-04-03T05:47:56;4.70;;;2.40;;
74102;SDS011;62853;46.166;3.640;2023-04-03T05:50:21;6.00;;;2.70;;
74102;SDS011;62853;46.166;3.640;2023-04-03T05:52:47;4.22;;;2.15;;
74102;SDS011;62853;46.166;3.640;2023-04-03T05:55:14;6.05;;;2.15;;
74102;SDS011;62853;46.166;3.640;2023-04-03T05:57:40;7.60;;;2.33;;
74102;SDS011;62853;46.166;3.640;2023-04-03T06:00:06;6.32;;;2.60;;
74102;SDS011;62853;46.166;3.640;2023-04-03T06:02:34;8.85;;;2.67;;
74102;SDS011;62853;46.166;3.640;2023-04-03T06:05:00;11.50;;;2.72;;
74102;SDS011;62853;46.166;3.640;2023-04-03T06:07:26;8.15;;;2.63;;
74102;SDS011;62853;46.166;3.640;2023-04-03T06:09:53;4.55;;;2.30;;
74102;SDS011;62853;46.166;3.640;2023-04-03T06:12:20;5.45;;;2.50;;
74102;SDS011;62853;46.166;3.640;2023-04-03T06:14:47;6.72;;;2.42;;
74102;SDS011;62853;46.166;3.640;2023-04-03T06:17:13;5.10;;;3.03;;
74102;SDS011;62853;46.166;3.640;2023-04-03T06:19:40;5.13;;;2.60;;
74102;SDS011;62853;46.166;3.640;2023-04-03T06:22:05;11.75;;;2.70;;
74102;SDS011;62853;46.166;3.640;2023-04-03T06:24:31;5.10;;;2.83;;
74102;SDS011;62853;46.166;3.640;2023-04-03T06:26:57;5.53;;;2.10;;
74102;SDS011;62853;46.166;3.640;2023-04-03T06:29:23;4.95;;;2.45;;
74102;SDS011;62853;46.166;3.640;2023-04-03T06:31:49;6.13;;;2.72;;
74102;SDS011;62853;46.166;3.640;2023-04-03T06:34:15;6.50;;;1.58;;
74102;SDS011;62853;46.166;3.640;2023-04-03T06:36:42;6.63;;;2.38;;
74102;SDS011;62853;46.166;3.640;2023-04-03T06:39:08;3.90;;;1.80;;
74102;SDS011;62853;46.166;3.640;2023-04-03T06:41:54;4.78;;;2.13;;
74102;SDS011;62853;46.166;3.640;2023-04-03T06:44:20;7.00;;;1.95;;
74102;SDS011;62853;46.166;3.640;2023-04-03T06:46:45;5.20;;;1.80;;
74102;SDS011;62853;46.166;3.640;2023-04-03T06:49:11;7.70;;;2.00;;
74102;SDS011;62853;46.166;3.640;2023-04-03T06:51:37;8.20;;;1.75;;
74102;SDS011;62853;46.166;3.640;2023-04-03T06:54:04;5.25;;;1.90;;
74102;SDS011;62853;46.166;3.640;2023-04-03T06:56:31;3.75;;;1.77;;
74102;SDS011;62853;46.166;3.640;2023-04-03T06:58:56;8.38;;;2.17;;
74102;SDS011;62853;46.166;3.640;2023-04-03T07:01:27;8.90;;;2.42;;
74102;SDS011;62853;46.166;3.640;2023-04-03T07:03:55;6.60;;;2.75;;
74102;SDS011;62853;46.166;3.640;2023-04-03T07:06:20;4.57;;;2.38;;
74102;SDS011;62853;46.166;3.640;2023-04-03T07:08:46;6.30;;;2.70;;
74102;SDS011;62853;46.166;3.640;2023-04-03T07:11:13;5.70;;;2.58;;
74102;SDS011;62853;46.166;3.640;2023-04-03T07:13:39;4.75;;;2.08;;
74102;SDS011;62853;46.166;3.640;2023-04-03T07:16:05;5.35;;;2.67;;
74102;SDS011;62853;46.166;3.640;2023-04-03T07:18:31;9.02;;;2.97;;
74102;SDS011;62853;46.166;3.640;2023-04-03T07:20:57;8.00;;;3.05;;
74102;SDS011;62853;46.166;3.640;2023-04-03T07:23:23;8.88;;;3.28;;
74102;SDS011;62853;46.166;3.640;2023-04-03T07:25:49;6.65;;;2.70;;
74102;SDS011;62853;46.166;3.640;2023-04-03T07:28:16;7.78;;;2.70;;
74102;SDS011;62853;46.166;3.640;2023-04-03T07:30:44;6.60;;;2.88;;
74102;SDS011;62853;46.166;3.640;2023-04-03T07:33:11;6.65;;;2.70;;
74102;SDS011;62853;46.166;3.640;2023-04-03T07:35:38;5.60;;;2.97;;
74102;SDS011;62853;46.166;3.640;2023-04-03T07:38:04;6.78;;;2.55;;
74102;SDS011;62853;46.166;3.640;2023-04-03T07:40:30;5.60;;;2.70;;
74102;SDS011;62853;46.166;3.640;2023-04-03T07:42:56;6.40;;;2.53;;
74102;SDS011;62853;46.166;3.640;2023-04-03T07:45:21;8.80;;;2.88;;
74102;SDS011;62853;46.166;3.640;2023-04-03T07:47:48;6.65;;;2.97;;
74102;SDS011;62853;46.166;3.640;2023-04-03T07:50:13;5.22;;;2.42;;
74102;SDS011;62853;46.166;3.640;2023-04-03T07:52:39;6.65;;;2.20;;
74102;SDS011;62853;46.166;3.640;2023-04-03T07:55:05;5.72;;;2.70;;
74102;SDS011;62853;46.166;3.640;2023-04-03T07:57:31;5.72;;;2.65;;
74102;SDS011;62853;46.166;3.640;2023-04-03T07:59:56;9.40;;;3.03;;
74102;SDS011;62853;46.166;3.640;2023-04-03T08:02:22;8.25;;;2.78;;
74102;SDS011;62853;46.166;3.640;2023-04-03T08:04:47;5.95;;;2.70;;
74102;SDS011;62853;46.166;3.640;2023-04-03T08:07:13;6.43;;;2.70;;
74102;SDS011;62853;46.166;3.640;2023-04-03T08:09:38;5.93;;;2.70;;
74102;SDS011;62853;46.166;3.640;2023-04-03T08:12:04;8.63;;;2.95;;
74102;SDS011;62853;46.166;3.640;2023-04-03T08:14:30;6.93;;;2.60;;
74102;SDS011;62853;46.166;3.640;2023-04-03T08:17:02;8.20;;;2.80;;
74102;SDS011;62853;46.166;3.640;2023-04-03T08:19:29;6.60;;;2.50;;
74102;SDS011;62853;46.166;3.640;2023-04-03T08:21:55;6.20;;;2.90;;
74102;SDS011;62853;46.166;3.640;2023-04-03T08:24:21;6.28;;;2.53;;
74102;SDS011;62853;46.166;3.640;2023-04-03T08:26:47;6.82;;;2.85;;
74102;SDS011;62853;46.166;3.640;2023-04-03T08:29:12;6.00;;;2.50;;
74102;SDS011;62853;46.166;3.640;2023-04-03T08:31:38;4.40;;;2.20;;
74102;SDS011;62853;46.166;3.640;2023-04-03T08:34:04;6.50;;;2.83;;
74102;SDS011;62853;46.166;3.640;2023-04-03T08:36:30;5.55;;;2.20;;
74102;SDS011;62853;46.166;3.640;2023-04-03T08:38:55;6.00;;;2.10;;
74102;SDS011;62853;46.166;3.640;2023-04-03T08:49:40;5.70;;;1.65;;
74102;SDS011;62853;46.166;3.640;2023-04-03T08:55:39;4.50;;;1.50;;
74102;SDS011;62853;46.166;3.640;2023-04-03T08:57:48;4.03;;;1.90;;
74102;SDS011;62853;46.166;3.640;2023-04-03T09:00:22;4.47;;;1.38;;
74102;SDS011;62853;46.166;3.640;2023-04-03T09:02:53;3.15;;;1.27;;
74102;SDS011;62853;46.166;3.640;2023-04-03T09:10:49;5.22;;;1.00;;
74102;SDS011;62853;46.166;3.640;2023-04-03T09:19:18;2.38;;;1.02;;
74102;SDS011;62853;46.166;3.640;2023-04-03T09:21:51;1.95;;;0.90;;
74102;SDS011;62853;46.166;3.640;2023-04-03T09:24:17;1.95;;;0.80;;
74102;SDS011;62853;46.166;3.640;2023-04-03T09:26:48;2.90;;;0.90;;
74102;SDS011;62853;46.166;3.640;2023-04-03T09:29:21;2.88;;;0.82;;
74102;SDS011;62853;46.166;3.640;2023-04-03T09:31:49;1.42;;;0.68;;
74102;SDS011;62853;46.166;3.640;2023-04-03T09:36:52;2.05;;;0.93;;
74102;SDS011;62853;46.166;3.640;2023-04-03T09:39:21;1.80;;;0.77;;
74102;SDS011;62853;46.166;3.640;2023-04-03T09:44:23;1.65;;;0.60;;
74102;SDS011;62853;46.166;3.640;2023-04-03T09:46:50;2.65;;;0.85;;
74102;SDS011;62853;46.166;3.640;2023-04-03T09:49:16;1.92;;;0.77;;
74102;SDS011;62853;46.166;3.640;2023-04-03T09:51:42;3.13;;;0.80;;
74102;SDS011;62853;46.166;3.640;2023-04-03T09:56:51;3.35;;;0.93;;
74102;SDS011;62853;46.166;3.640;2023-04-03T09:59:18;2.22;;;0.60;;
74102;SDS011;62853;46.166;3.640;2023-04-03T10:01:56;1.38;;;0.73;;
74102;SDS011;62853;46.166;3.640;2023-04-03T10:04:36;1.63;;;0.60;;
74102;SDS011;62853;46.166;3.640;2023-04-03T10:07:04;1.75;;;0.63;;
74102;SDS011;62853;46.166;3.640;2023-04-03T10:09:58;3.58;;;0.98;;
74102;SDS011;62853;46.166;3.640;2023-04-03T10:12:26;1.52;;;0.82;;
74102;SDS011;62853;46.166;3.640;2023-04-03T10:19:47;0.82;;;0.55;;
74102;SDS011;62853;46.166;3.640;2023-04-03T10:22:20;1.88;;;0.73;;
74102;SDS011;62853;46.166;3.640;2023-04-03T10:35:44;3.40;;;0.70;;
74102;SDS011;62853;46.166;3.640;2023-04-03T10:38:30;2.25;;;0.80;;
74102;SDS011;62853;46.166;3.640;2023-04-03T10:46:41;1.23;;;0.68;;
74102;SDS011;62853;46.166;3.640;2023-04-03T10:57:32;4.53;;;1.40;;
74102;SDS011;62853;46.166;3.640;2023-04-03T10:59:59;1.48;;;0.88;;
74102;SDS011;62853;46.166;3.640;2023-04-03T11:02:41;3.42;;;1.08;;
74102;SDS011;62853;46.166;3.640;2023-04-03T11:07:55;1.77;;;1.00;;
74102;SDS011;62853;46.166;3.640;2023-04-03T11:13:11;2.38;;;1.00;;
74102;SDS011;62853;46.166;3.640;2023-04-03T11:15:40;2.92;;;0.90;;
74102;SDS011;62853;46.166;3.640;2023-04-03T11:18:13;2.83;;;1.15;;
74102;SDS011;62853;46.166;3.640;2023-04-03T11:20:44;2.33;;;1.17;;
74102;SDS011;62853;46.166;3.640;2023-04-03T11:23:22;1.60;;;0.70;;
74102;SDS011;62853;46.166;3.640;2023-04-03T11:25:51;2.28;;;0.98;;
74102;SDS011;62853;46.166;3.640;2023-04-03T11:28:20;3.17;;;1.13;;
74102;SDS011;62853;46.166;3.640;2023-04-03T11:30:48;2.53;;;0.80;;
74102;SDS011;62853;46.166;3.640;2023-04-03T11:36:08;1.42;;;0.70;;
74102;SDS011;62853;46.166;3.640;2023-04-03T11:38:41;1.73;;;0.90;;
74102;SDS011;62853;46.166;3.640;2023-04-03T11:41:09;2.33;;;1.02;;
74102;SDS011;62853;46.166;3.640;2023-04-03T11:43:41;1.70;;;0.77;;
74102;SDS011;62853;46.166;3.640;2023-04-03T11:46:22;3.25;;;1.35;;
74102;SDS011;62853;46.166;3.640;2023-04-03T11:49:55;1.83;;;0.75;;
74102;SDS011;62853;46.166;3.640;2023-04-03T12:03:31;3.25;;;0.70;;
74102;SDS011;62853;46.166;3.640;2023-04-03T12:08:59;2.25;;;0.80;;
74102;SDS011;62853;46.166;3.640;2023-04-03T12:11:31;4.75;;;1.23;;
74102;SDS011;62853;46.166;3.640;2023-04-03T12:16:24;3.25;;;0.75;;
74102;SDS011;62853;46.166;3.640;2023-04-03T12:22:05;4.43;;;1.27;;
74102;SDS011;62853;46.166;3.640;2023-04-03T12:26:50;3.00;;;0.88;;
74102;SDS011;62853;46.166;3.640;2023-04-03T12:35:03;4.75;;;1.25;;
74102;SDS011;62853;46.166;3.640;2023-04-03T12:45:38;4.03;;;0.95;;
74102;SDS011;62853;46.166;3.640;2023-04-03T12:48:14;2.72;;;0.80;;
74102;SDS011;62853;46.166;3.640;2023-04-03T12:50:43;5.55;;;0.80;;
74102;SDS011;62853;46.166;3.640;2023-04-03T12:53:12;1.90;;;1.00;;
74102;SDS011;62853;46.166;3.640;2023-04-03T12:55:42;2.92;;;1.02;;
74102;SDS011;62853;46.166;3.640;2023-04-03T12:58:21;2.00;;;1.20;;
74102;SDS011;62853;46.166;3.640;2023-04-03T13:03:35;3.13;;;0.95;;
74102;SDS011;62853;46.166;3.640;2023-04-03T13:06:04;3.53;;;1.05;;
74102;SDS011;62853;46.166;3.640;2023-04-03T13:08:30;2.35;;;0.90;;
74102;SDS011;62853;46.166;3.640;2023-04-03T13:11:03;2.13;;;0.88;;
74102;SDS011;62853;46.166;3.640;2023-04-03T13:13:33;2.25;;;0.80;;
74102;SDS011;62853;46.166;3.640;2023-04-03T13:15:59;2.38;;;0.98;;
74102;SDS011;62853;46.166;3.640;2023-04-03T13:20:53;2.00;;;0.98;;
74102;SDS011;62853;46.166;3.640;2023-04-03T13:23:23;1.65;;;0.80;;
74102;SDS011;62853;46.166;3.640;2023-04-03T13:25:50;1.98;;;1.05;;
74102;SDS011;62853;46.166;3.640;2023-04-03T13:28:21;1.85;;;1.17;;
74102;SDS011;62853;46.166;3.640;2023-04-03T13:30:59;2.97;;;0.88;;
74102;SDS011;62853;46.166;3.640;2023-04-03T13:33:30;3.50;;;0.80;;
74102;SDS011;62853;46.166;3.640;2023-04-03T13:36:05;2.25;;;1.00;;
74102;SDS011;62853;46.166;3.640;2023-04-03T13:38:33;4.38;;;0.98;;
74102;SDS011;62853;46.166;3.640;2023-04-03T13:41:00;2.20;;;1.00;;
74102;SDS011;62853;46.166;3.640;2023-04-03T13:43:31;2.97;;;1.00;;
74102;SDS011;62853;46.166;3.640;2023-04-03T13:46:00;1.58;;;0.95;;
74102;SDS011;62853;46.166;3.640;2023-04-03T13:48:34;2.00;;;1.20;;
74102;SDS011;62853;46.166;3.640;2023-04-03T13:53:49;2.75;;;1.17;;
74102;SDS011;62853;46.166;3.640;2023-04-03T13:56:37;2.22;;;1.05;;
74102;SDS011;62853;46.166;3.640;2023-04-03T14:04:20;2.30;;;0.93;;
74102;SDS011;62853;46.166;3.640;2023-04-03T14:06:48;5.15;;;1.17;;
74102;SDS011;62853;46.166;3.640;2023-04-03T14:09:14;3.40;;;1.38;;
74102;SDS011;62853;46.166;3.640;2023-04-03T14:11:42;4.35;;;1.30;;
74102;SDS011;62853;46.166;3.640;2023-04-03T14:14:15;1.80;;;0.88;;
74102;SDS011;62853;46.166;3.640;2023-04-03T14:16:44;2.25;;;1.25;;
74102;SDS011;62853;46.166;3.640;2023-04-03T14:19:45;3.35;;;1.30;;
74102;SDS011;62853;46.166;3.640;2023-04-03T14:22:11;2.22;;;1.17;;
74102;SDS011;62853;46.166;3.640;2023-04-03T14:24:40;1.85;;;1.30;;
74102;SDS011;62853;46.166;3.640;2023-04-03T14:27:11;3.60;;;1.40;;
74102;SDS011;62853;46.166;3.640;2023-04-03T14:29:41;3.00;;;1.33;;
74102;SDS011;62853;46.166;3.640;2023-04-03T14:32:06;4.00;;;1.55;;
74102;SDS011;62853;46.166;3.640;2023-04-03T14:34:32;5.07;;;1.38;;
74102;SDS011;62853;46.166;3.640;2023-04-03T14:36:57;3.25;;;1.40;;
74102;SDS011;62853;46.166;3.640;2023-04-03T14:39:23;3.25;;;1.27;;
74102;SDS011;62853;46.166;3.640;2023-04-03T14:41:48;3.83;;;1.30;;
74102;SDS011;62853;46.166;3.640;2023-04-03T14:44:14;2.72;;;1.30;;
74102;SDS011;62853;46.166;3.640;2023-04-03T14:46:41;3.30;;;1.60;;
74102;SDS011;62853;46.166;3.640;2023-04-03T14:49:15;3.15;;;1.13;;
74102;SDS011;62853;46.166;3.640;2023-04-03T14:51:42;3.67;;;1.30;;
74102;SDS011;62853;46.166;3.640;2023-04-03T14:54:19;4.40;;;1.48;;
74102;SDS011;62853;46.166;3.640;2023-04-03T14:56:50;2.70;;;1.38;;
74102;SDS011;62853;46.166;3.640;2023-04-03T14:59:16;3.67;;;1.33;;
74102;SDS011;62853;46.166;3.640;2023-04-03T15:01:45;2.38;;;1.27;;
74102;SDS011;62853;46.166;3.640;2023-04-03T15:04:14;2.95;;;1.33;;
74102;SDS011;62853;46.166;3.640;2023-04-03T15:06:41;6.55;;;1.40;;
74102;SDS011;62853;46.166;3.640;2023-04-03T15:09:12;3.10;;;1.10;;
74102;SDS011;62853;46.166;3.640;2023-04-03T15:11:52;2.42;;;1.50;;
74102;SDS011;62853;46.166;3.640;2023-04-03T15:14:18;2.90;;;1.30;;
74102;SDS011;62853;46.166;3.640;2023-04-03T15:16:44;4.32;;;1.40;;
74102;SDS011;62853;46.166;3.640;2023-04-03T15:19:10;5.53;;;1.63;;
74102;SDS011;62853;46.166;3.640;2023-04-03T15:21:36;4.05;;;1.30;;
74102;SDS011;62853;46.166;3.640;2023-04-03T15:24:02;2.72;;;1.00;;
74102;SDS011;62853;46.166;3.640;2023-04-03T15:26:29;4.38;;;1.48;;
74102;SDS011;62853;46.166;3.640;2023-04-03T15:28:55;5.30;;;1.35;;
74102;SDS011;62853;46.166;3.640;2023-04-03T15:31:20;2.67;;;1.15;;
74102;SDS011;62853;46.166;3.640;2023-04-03T15:33:46;3.33;;;1.30;;
74102;SDS011;62853;46.166;3.640;2023-04-03T15:36:12;5.60;;;1.27;;
74102;SDS011;62853;46.166;3.640;2023-04-03T15:38:37;3.80;;;1.17;;
74102;SDS011;62853;46.166;3.640;2023-04-03T15:41:03;3.03;;;1.23;;
74102;SDS011;62853;46.166;3.640;2023-04-03T15:43:29;3.03;;;1.00;;
74102;SDS011;62853;46.166;3.640;2023-04-03T15:45:56;4.88;;;1.92;;
74102;SDS011;62853;46.166;3.640;2023-04-03T15:48:23;3.47;;;1.38;;
74102;SDS011;62853;46.166;3.640;2023-04-03T15:50:49;4.63;;;1.15;;
74102;SDS011;62853;46.166;3.640;2023-04-03T15:53:14;5.15;;;1.67;;
74102;SDS011;62853;46.166;3.640;2023-04-03T15:55:40;5.32;;;1.40;;
74102;SDS011;62853;46.166;3.640;2023-04-03T15:58:06;3.45;;;1.08;;
74102;SDS011;62853;46.166;3.640;2023-04-03T16:00:31;5.50;;;1.27;;
74102;SDS011;62853;46.166;3.640;2023-04-03T16:02:58;6.15;;;1.40;;
74102;SDS011;62853;46.166;3.640;2023-04-03T16:05:27;9.18;;;4.32;;
74102;SDS011;62853;46.166;3.640;2023-04-03T16:07:53;7.15;;;3.22;;
74102;SDS011;62853;46.166;3.640;2023-04-03T16:10:20;7.22;;;3.85;;
74102;SDS011;62853;46.166;3.640;2023-04-03T16:12:45;8.10;;;5.65;;
74102;SDS011;62853;46.166;3.640;2023-04-03T16:15:10;6.63;;;3.03;;
74102;SDS011;62853;46.166;3.640;2023-04-03T16:17:37;3.15;;;1.80;;
74102;SDS011;62853;46.166;3.640;2023-04-03T16:20:04;4.03;;;2.42;;
74102;SDS011;62853;46.166;3.640;2023-04-03T16:22:31;6.72;;;3.05;;
74102;SDS011;62853;46.166;3.640;2023-04-03T16:24:57;7.15;;;4.10;;
74102;SDS011;62853;46.166;3.640;2023-04-03T16:27:22;15.00;;;8.80;;
74102;SDS011;62853;46.166;3.640;2023-04-03T16:29:52;4.40;;;1.60;;
74102;SDS011;62853;46.166;3.640;2023-04-03T16:32:20;4.35;;;2.58;;
74102;SDS011;62853;46.166;3.640;2023-04-03T16:34:47;4.30;;;2.13;;
74102;SDS011;62853;46.166;3.640;2023-04-03T16:37:13;15.95;;;9.52;;
74102;SDS011;62853;46.166;3.640;2023-04-03T16:39:39;6.13;;;2.17;;
74102;SDS011;62853;46.166;3.640;2023-04-03T16:42:04;4.07;;;1.83;;
74102;SDS011;62853;46.166;3.640;2023-04-03T16:44:30;3.35;;;1.35;;
74102;SDS011;62853;46.166;3.640;2023-04-03T16:46:55;6.80;;;1.77;;
74102;SDS011;62853;46.166;3.640;2023-04-03T16:49:21;3.83;;;2.05;;
74102;SDS011;62853;46.166;3.640;2023-04-03T16:51:47;4.75;;;1.70;;
74102;SDS011;62853;46.166;3.640;2023-04-03T16:54:14;3.72;;;1.58;;